Holgate, OH

12:31 AM EDT on September 15, 2014 (GMT -0400)
KOHNAPOL2 | Change Station
CLOSE
Current Station
Personal Weather Station
Location: Napoleon, OH
Elevation: 680 ft
Nearby Weather Stations

Elev 680 ft 41.42 °N, 84.12 °W | Updated 8 seconds ago

Clear
Clear
45.9 °F
Feels Like 46 °F
N
0.0
Wind Variable Wind from ENE
Gusts 0.0 mph

Today
High -- | Low -- °F
--% Chance of Precip.
Yesterday
High -- | Low -- °F
Precip. -- in
7:16 AM 7:45 PM
Waning Gibbous, 59% visible
Pressure 30.22 in
Visibility 10.0 miles
Clouds Clear
Windchill 46 °F
Dew Point 45 °F
Humidity 97%
Rainfall 0.00 in
Snow Depth Not available.
UV 0 out of 12
Pollen 3.70 out of 12
Air Quality Not available.
Flu Activity Not available.
METAR KDFI 150353Z AUTO 00000KT 10SM CLR 10/08 A3021 RMK AO2 SLP233 T01000078

More Conditions Fewer Conditions

Pressure 30.22 in
Visibility 10.0 miles
Clouds Clear
Windchill 46 °F
Dew Point 45 °F
Humidity 97%
Rainfall 0.00 in
Snow Depth Not available.
UV 0 out of 12
Pollen 3.70 out of 12
Air Quality Not available.
Flu Activity Not available.
METAR KDFI 150353Z AUTO 00000KT 10SM CLR 10/08 A3021 RMK AO2 SLP233 T01000078

More Conditions Fewer Conditions

10-Day Weather Forecast

Almanac

Astronomy

Sep. 15, 2014 Rise Set
Actual Time 7:16 AM EDT 7:45 PM EDT
Civil Twilight 6:49 AM EDT 8:13 PM EDT
Nautical Twilight 6:16 AM EDT 8:45 PM EDT
Astronomical Twilight 5:42 AM EDT 9:19 PM EDT
Moon No Moon Rise 2:19 PM EDT
Length of Visible Light 13h 24m
Length of Day
12h 28m
Tomorrow will be 2m 44s shorter.
Waning Gibbous, 59% of the Moon is Illuminated
Today
Waning Gibbous
Sep 15
Last Quarter
Sep 24
New
Oct 1
First Quarter
Oct 8
Full

Yesterday's Extremes

State Highs State Lows

Community

WunderPhotos

Upload Photos

1,753,400 photos uploaded!

Nearby

Snow Depth

Station Depth Elevation
No new snow has been reported.

Earthquake Activity

City Distance Mag. Time & Date
No recent earthquake activity has been reported nearby.
Minimum magnitude displayed is 2.5.

Coastal Water Temperatures

Place Temperature
No Stations Reporting

Nearby Weather Stations